Date,TemperatureHighF,TemperatureAvgF,TemperatureLowF,DewpointHighF,DewpointAvgF,DewpointLowF,HumidityHigh,HumidityAvg,HumidityLow,PressureMaxIn,PressureMinIn,WindSpeedMaxMPH,WindSpeedAvgMPH,GustSpeedMaxMPH,PrecipitationSumIn
2014-1-1,62.3,47.7,39.3,38.5,35.2,33.4,80,64,34,30.28,30.15,5,1,8,0.00
2014-1-2,64.1,48.6,36.3,37.3,35.0,31.0,81,62,35,30.23,30.13,3,1,5,0.00
2014-1-3,64.8,48.5,36.0,41.0,37.2,32.5,91,67,38,30.20,30.06,4,1,6,0.00
2014-1-4,64.5,50.3,39.3,42.0,39.0,34.6,85,67,42,30.09,29.95,3,1,5,0.00
2014-1-5,65.9,48.7,37.7,43.0,34.6,26.5,90,63,23,30.13,29.98,7,2,9,0.00
2014-1-6,64.3,48.9,38.1,37.9,34.3,30.0,83,60,32,30.24,30.13,3,1,3,0.00
2014-1-7,60.1,49.1,38.2,35.9,33.3,31.2,80,56,36,30.31,30.16,3,1,5,0.00
2014-1-8,64.0,50.4,38.4,39.0,34.5,32.3,80,57,32,30.21,30.10,3,1,6,0.00
2014-1-9,58.6,49.1,44.3,47.6,43.9,39.1,96,83,63,30.23,30.12,4,1,7,0.00
2014-1-10,60.3,50.2,43.1,49.0,44.9,40.8,93,83,62,30.25,30.16,5,1,10,0.00
2014-1-11,60.7,49.0,38.2,45.0,41.9,36.9,96,78,52,30.32,30.17,4,1,6,0.00
2014-1-12,55.5,49.9,42.4,50.5,45.2,40.6,95,84,76,30.26,30.13,7,3,12,0.01
2014-1-13,59.5,47.7,36.0,44.8,37.3,32.2,98,71,37,30.40,30.25,12,4,17,0.01
2014-1-14,62.9,48.2,36.6,43.4,38.0,31.7,86,69,45,30.50,30.37,3,1,5,0.00
2014-1-15,66.4,48.7,35.1,42.4,38.3,32.2,92,70,37,30.50,30.35,2,0,5,0.00
2014-1-16,67.5,51.2,38.8,42.6,39.0,34.4,85,65,38,30.39,30.21,3,1,5,0.00
2014-1-17,69.6,51.5,37.2,40.5,35.7,29.3,82,57,33,30.27,30.14,3,0,4,0.00
2014-1-18,68.6,51.3,37.6,40.2,34.2,27.3,71,54,30,30.24,30.12,4,1,7,0.00
2014-1-19,68.7,50.5,35.3,35.5,33.5,30.1,84,55,29,30.20,30.07,4,1,7,0.00
2014-1-20,68.7,50.4,35.6,38.6,34.4,29.8,83,57,29,30.17,30.07,3,1,5,0.00
2014-1-21,69.2,51.0,34.5,37.3,31.4,27.6,78,50,24,30.24,30.13,3,1,4,0.00
2014-1-22,68.9,50.4,35.1,36.1,32.1,27.7,83,52,24,30.28,30.15,6,2,8,0.00
2014-1-23,67.0,50.0,37.2,33.9,30.8,26.0,68,50,27,30.15,29.92,3,1,5,0.00
2014-1-24,71.5,51.9,37.2,34.1,31.3,28.2,73,49,21,30.05,29.89,4,1,4,0.00
2014-1-25,78.3,57.9,43.3,38.0,32.3,22.8,68,42,13,30.26,30.06,5,1,7,0.00
2014-1-26,73.7,55.4,44.1,37.1,31.9,28.6,71,44,20,30.26,30.10,4,2,6,0.00
2014-1-27,66.4,50.7,41.7,35.6,33.1,30.7,67,52,30,30.16,30.03,3,1,4,0.00
2014-1-28,64.9,52.9,38.1,39.4,35.8,31.0,79,54,35,30.19,30.05,3,1,4,0.00
2014-1-29,68.4,58.1,49.2,48.2,41.8,37.8,82,56,36,30.25,30.15,3,1,4,0.00
2014-1-30,60.9,56.7,52.6,58.2,54.5,48.3,97,93,82,30.16,29.93,6,3,12,0.14
2014-1-31,63.0,54.3,47.2,51.8,47.6,42.9,97,80,50,29.93,29.82,5,1,6,0.30
2014-2-1,59.3,47.3,38.4,46.8,36.1,23.7,98,70,28,30.07,29.90,6,1,11,0.05
2014-2-2,60.0,45.7,32.8,34.5,30.0,26.2,88,58,28,30.16,30.04,4,1,6,0.00
2014-2-3,52.4,45.7,38.9,39.6,36.0,29.1,83,69,55,30.04,29.91,7,2,12,0.00
2014-2-4,56.5,46.7,37.9,39.3,36.8,33.8,86,70,51,30.08,29.98,5,2,8,0.00
2014-2-5,56.3,44.8,34.1,36.6,33.9,31.2,90,68,43,30.17,30.07,4,1,7,0.00
2014-2-6,55.0,46.8,35.1,42.6,37.2,31.4,92,71,53,30.20,30.07,5,2,8,0.11
2014-2-7,50.4,47.6,44.3,46.6,44.1,41.9,94,88,80,30.07,29.94,7,3,10,0.32
2014-2-8,50.9,49.4,47.0,49.4,47.3,44.2,96,92,86,30.12,30.00,9,6,16,0.40
2014-2-9,54.6,53.0,50.4,54.0,52.0,49.3,99,96,93,30.15,30.06,12,7,19,2.00
2014-2-10,56.7,55.7,54.4,56.4,55.4,54.1,99,99,99,30.14,30.05,8,6,13,1.21
2014-2-11,63.8,56.0,49.1,56.1,53.5,48.6,99,92,72,30.26,30.10,4,1,6,0.03
2014-2-12,63.6,54.0,46.3,54.2,50.3,45.8,99,88,64,30.24,30.15,4,1,5,0.01
2014-2-13,65.6,56.1,46.9,54.5,50.5,46.4,98,82,60,30.27,30.15,7,2,9,0.00
2014-2-14,70.2,61.3,53.8,58.0,54.7,51.2,93,80,63,30.21,30.08,5,2,8,0.00
2014-2-15,57.5,56.2,55.1,53.0,52.4,51.9,89,87,85,30.06,30.00,3,1,4,0.00
2014-2-16,61.2,56.4,52.9,54.9,52.7,50.8,94,88,78,30.03,29.93,9,3,12,0.05
2014-2-17,64.6,54.5,41.9,53.8,44.0,35.0,98,71,36,30.21,30.03,5,1,8,0.01
2014-2-18,62.9,50.3,39.3,46.0,41.0,37.6,96,73,45,30.16,30.08,5,1,9,0.00
2014-2-19,65.8,52.9,39.7,48.0,42.9,37.8,95,72,42,30.20,30.04,4,1,6,0.00
2014-2-20,63.9,54.1,44.0,51.7,43.0,30.9,94,69,30,30.19,30.06,8,3,10,0.00
2014-2-21,66.4,52.4,40.7,41.6,38.5,36.0,84,62,35,30.21,30.10,7,2,11,0.00
2014-2-22,68.9,54.8,40.9,44.4,41.6,37.4,91,64,39,30.11,29.97,6,1,6,0.00
2014-2-23,70.5,56.0,43.0,46.4,43.5,38.9,87,65,38,30.01,29.89,4,1,6,0.00
2014-2-24,71.6,56.5,42.3,48.0,44.0,39.1,90,66,37,30.02,29.93,5,1,7,0.00
2014-2-25,73.9,58.3,44.1,47.2,44.0,40.2,91,62,35,30.01,29.90,4,1,6,0.00
2014-2-26,73.7,58.8,44.8,48.2,45.4,39.7,89,64,37,29.96,29.85,5,2,6,0.00
2014-2-27,64.3,56.1,51.9,54.5,51.0,46.9,94,83,59,29.97,29.69,12,5,19,0.52
2014-2-28,65.0,56.2,51.0,54.5,49.5,45.1,95,79,53,29.91,29.56,9,3,15,0.07
2014-3-1,56.4,52.6,50.1,54.0,50.4,45.3,97,92,74,29.58,29.40,8,3,13,1.96
2014-3-2,68.6,58.5,51.3,49.4,46.9,43.8,91,67,43,29.86,29.58,11,4,20,0.01
2014-3-3,61.4,54.8,49.1,55.7,50.8,44.6,97,87,67,30.18,29.84,11,3,18,0.19
2014-3-4,59.4,54.0,48.8,54.8,51.6,48.0,98,92,80,30.16,30.06,5,2,9,0.17
2014-3-5,62.5,56.7,51.2,56.1,53.5,49.8,98,90,73,30.14,30.05,7,2,10,0.02
2014-3-6,67.8,61.5,53.6,58.6,56.2,52.3,97,84,68,30.10,29.96,7,3,14,0.33
2014-3-7,68.8,58.8,48.0,57.9,51.0,45.2,98,78,46,30.16,30.04,7,2,10,0.05
2014-3-8,69.9,56.7,45.8,48.1,46.0,42.7,95,71,38,30.15,30.06,9,3,13,0.00
2014-3-9,72.5,59.5,45.2,52.7,48.8,41.6,91,70,44,30.21,30.09,4,1,9,0.00
2014-3-10,71.2,62.4,55.0,56.8,53.5,50.0,91,74,48,30.18,30.05,4,1,7,0.00
2014-3-11,66.6,58.5,50.1,55.7,46.9,37.2,96,68,34,30.22,30.05,10,4,13,0.22
2014-3-12,72.5,60.2,45.9,42.9,32.0,15.9,66,39,14,30.16,30.01,14,8,22,0.00
2014-3-13,75.3,62.4,47.3,41.7,33.6,22.4,61,36,18,30.17,29.99,12,6,16,0.00
2014-3-14,76.3,60.2,45.5,42.7,36.3,27.9,65,44,18,30.05,29.93,7,2,10,0.00
2014-3-15,74.0,60.2,47.8,47.5,43.2,36.8,74,55,31,30.20,30.01,5,2,8,0.00
2014-3-16,79.3,63.1,47.8,47.8,44.0,38.6,87,54,25,30.30,30.19,6,1,8,0.00
2014-3-17,82.1,64.8,50.5,50.4,45.0,39.5,78,52,28,30.31,30.10,6,2,11,0.00
2014-3-18,67.5,56.6,46.3,47.3,39.8,34.0,79,56,30,30.13,29.93,11,4,15,0.00
2014-3-19,71.6,56.8,45.3,40.6,35.7,32.7,76,48,25,29.98,29.88,10,3,11,0.00
2014-3-20,76.9,60.4,44.1,46.4,42.5,37.6,78,55,27,30.10,29.97,6,1,7,0.00
2014-3-21,75.7,61.2,49.3,48.9,45.0,41.1,80,58,29,30.04,29.89,5,1,7,0.00
2014-3-22,77.5,61.3,47.5,50.2,44.7,32.2,88,59,20,29.95,29.86,6,1,9,0.00
2014-3-23,76.2,60.3,44.4,49.1,44.6,37.3,92,62,25,30.08,29.95,4,1,7,0.00
2014-3-24,60.5,51.2,46.3,45.4,43.5,41.8,85,76,52,30.15,30.06,1,0,2,0.00
2014-3-25,66.6,58.5,54.4,44.7,39.8,-99.9,62,53,45,29.98,29.96,3,-22,5,0.00
2014-3-26,65.2,56.6,49.0,54.8,46.0,35.3,91,69,53,29.99,29.81,6,3,11,0.02
2014-3-27,59.1,52.8,48.7,53.1,48.3,44.6,93,85,68,29.98,29.80,8,3,10,0.44
2014-3-28,63.7,55.7,50.4,51.2,48.1,46.1,90,77,54,30.14,29.97,7,2,10,0.05
2014-3-29,69.2,60.3,52.8,52.6,49.7,48.3,89,69,50,30.19,30.07,7,3,12,0.00
2014-3-30,57.1,53.8,45.9,54.6,50.8,44.5,96,90,75,30.09,29.97,6,3,8,0.91
2014-3-31,63.7,53.7,44.7,49.1,44.1,40.2,98,72,47,30.10,30.01,7,3,14,0.01
2014-4-1,58.3,48.7,43.6,45.6,43.5,41.2,96,83,56,30.04,29.81,14,4,17,0.21
2014-4-2,49.1,45.8,43.6,46.4,44.0,41.8,96,93,87,29.98,29.84,7,3,15,1.19
2014-4-3,60.9,51.3,42.2,45.6,43.8,41.4,97,77,55,30.08,29.92,5,1,9,0.04
2014-4-4,66.8,55.6,45.2,47.8,43.3,38.4,90,66,36,30.12,30.00,6,2,8,0.00
2014-4-5,60.8,52.0,43.3,48.3,45.9,41.7,95,80,60,30.04,29.98,7,1,8,0.03
2014-4-6,70.3,55.8,39.0,50.0,45.3,38.0,97,71,38,30.16,30.04,7,2,10,0.01
2014-4-7,79.1,61.5,45.6,52.9,49.2,43.1,92,67,34,30.21,30.06,10,2,15,0.00
2014-4-8,82.9,68.0,52.6,57.7,53.7,47.7,84,63,39,30.16,30.04,5,2,9,0.00
2014-4-9,83.6,70.1,54.6,57.3,54.4,49.7,87,60,37,30.11,29.98,4,1,6,0.00
2014-4-10,84.2,69.1,54.7,56.9,50.8,41.6,82,56,25,30.04,29.92,5,2,8,0.00
2014-4-11,83.3,68.2,51.8,56.1,51.1,44.4,87,58,27,30.00,29.85,5,2,6,0.00
2014-4-12,80.7,65.8,50.9,60.8,52.4,48.3,91,65,34,29.89,29.77,5,2,8,0.00
2014-4-13,75.7,59.8,49.8,56.2,51.1,47.6,92,75,48,29.93,29.77,9,4,13,0.00
2014-4-14,81.2,62.6,50.1,55.2,48.2,38.5,91,67,22,30.03,29.91,9,4,13,0.00
2014-4-15,70.8,63.9,58.3,55.3,52.5,49.7,76,67,58,30.01,29.97,3,2,6,0.00
2014-4-16,81.7,67.8,52.8,57.0,51.3,45.7,85,59,29,29.99,29.82,4,2,8,0.00
2014-4-17,82.2,68.3,53.5,54.9,49.7,42.0,91,56,25,29.88,29.76,8,2,12,0.00
2014-4-18,84.8,69.1,55.0,58.3,52.4,48.2,80,58,32,29.82,29.73,8,3,12,0.00
2014-4-19,82.3,66.5,54.2,56.9,50.9,46.8,84,59,36,29.89,29.78,6,3,11,0.00
2014-4-20,78.4,62.4,51.0,53.5,48.6,40.6,93,65,27,30.09,29.89,6,4,11,0.00
2014-4-21,84.8,68.0,50.9,53.6,47.4,36.2,94,53,18,30.12,29.98,6,2,10,0.00
2014-4-22,75.5,65.1,54.6,49.1,41.6,23.9,81,46,15,30.02,29.88,8,4,13,0.00
2014-4-23,69.2,57.8,46.1,49.3,41.8,33.9,86,58,28,30.07,29.91,7,3,10,0.00
2014-4-24,71.8,59.8,44.2,48.4,42.2,35.5,87,57,27,30.12,30.02,6,2,10,0.00
2014-4-25,73.4,62.0,51.6,55.6,51.5,45.9,94,71,39,30.07,29.88,7,4,11,0.01
2014-4-26,56.7,51.6,45.5,54.4,48.8,44.7,98,90,79,29.89,29.75,7,2,10,0.74
2014-4-27,64.6,54.1,42.2,50.4,44.3,39.9,99,72,41,30.06,29.85,9,2,13,0.01
2014-4-28,68.5,57.4,48.7,50.7,47.1,41.7,88,70,40,30.12,30.02,5,2,10,0.00
2014-4-29,76.2,62.8,47.0,52.0,43.5,35.3,91,54,24,30.21,30.12,8,4,13,0.00
2014-4-30,90.0,70.7,51.3,54.6,47.9,41.0,77,49,20,30.18,30.01,5,2,8,0.00
2014-5-1,92.2,76.0,54.8,55.3,47.0,35.7,74,41,17,30.10,29.97,4,1,5,0.00
2014-5-2,93.0,76.9,60.1,52.7,46.9,38.0,67,39,18,30.08,30.00,4,2,8,0.00
2014-5-3,90.9,73.1,57.0,51.5,45.7,34.9,81,43,15,30.03,29.92,6,3,9,0.00
2014-5-4,75.5,63.1,53.4,53.3,49.1,44.1,86,63,33,29.97,29.89,9,5,15,0.00
2014-5-5,75.8,63.1,52.2,53.9,49.7,46.8,83,64,40,30.02,29.92,6,4,10,0.00
2014-5-6,73.2,60.1,52.0,52.4,48.2,42.7,95,69,36,29.99,29.85,8,3,13,0.07
2014-5-7,75.4,62.9,52.5,51.8,46.1,36.2,92,59,26,29.89,29.78,8,3,16,0.01
2014-5-8,78.3,63.0,50.3,50.8,47.8,42.7,88,61,29,29.95,29.83,9,4,15,0.00
2014-5-9,69.7,62.0,54.5,57.1,52.4,44.7,91,72,48,30.06,29.94,9,5,13,0.00
2014-5-10,77.2,63.7,51.6,54.9,50.2,46.0,94,64,34,30.11,30.01,9,3,9,0.00
2014-5-11,72.6,62.0,47.6,47.6,40.0,30.5,89,48,24,30.08,29.97,13,4,16,0.00
2014-5-12,80.8,67.6,50.2,42.0,38.3,33.5,61,36,21,30.09,29.96,12,5,16,0.00
2014-5-13,87.6,72.7,52.6,48.1,39.2,25.4,74,35,11,30.10,29.99,5,2,10,0.00
2014-5-14,93.9,77.4,55.0,51.7,44.9,34.6,74,36,13,30.13,30.03,5,1,8,0.00
2014-5-15,97.6,80.6,61.3,55.3,48.1,36.3,67,37,13,30.11,29.98,5,2,8,0.00
2014-5-16,96.6,80.9,63.3,54.3,43.6,27.0,65,32,9,30.06,29.96,5,2,8,0.00
2014-5-17,92.0,74.8,60.3,52.2,44.4,34.5,66,37,14,30.01,29.88,6,4,10,0.00
2014-5-18,83.8,68.3,58.4,54.1,50.6,46.3,70,55,34,29.93,29.83,6,4,10,0.00
2014-5-19,80.0,66.7,56.5,52.7,49.1,45.7,74,55,32,29.93,29.83,7,4,10,0.00
2014-5-20,75.2,62.8,53.0,50.9,48.6,44.5,83,62,35,29.91,29.82,8,5,13,0.00
2014-5-21,74.6,62.3,51.8,54.2,50.4,47.7,87,67,42,29.99,29.88,5,2,10,0.00
2014-5-22,85.3,69.7,52.8,57.0,52.3,47.3,89,58,27,29.95,29.82,6,2,12,0.00
2014-5-23,89.2,72.6,55.7,57.0,53.3,48.8,85,55,26,29.94,29.83,7,3,11,0.00
2014-5-24,93.5,74.6,57.3,60.4,55.2,50.6,80,54,26,29.98,29.80,5,2,9,0.00
2014-5-25,93.5,77.5,62.3,60.4,55.8,52.4,74,50,26,29.92,29.80,5,2,10,0.00
2014-5-26,97.3,79.1,61.6,57.4,52.8,39.9,72,44,14,29.91,29.80,6,2,8,0.00
2014-5-27,95.4,77.4,61.7,56.6,49.7,45.3,64,40,19,29.95,29.85,7,3,11,0.00
2014-5-28,90.6,73.4,56.3,52.0,47.3,37.3,73,43,17,29.98,29.86,6,3,8,0.00
2014-5-29,80.5,68.4,55.9,47.7,34.6,19.4,74,32,11,30.02,29.88,10,5,15,0.00
2014-5-30,87.5,71.6,55.7,42.3,38.2,29.3,53,33,13,29.92,29.81,7,3,11,0.00
2014-5-31,85.6,68.7,52.7,49.8,42.1,22.8,86,45,10,29.90,29.83,7,4,12,0.00
2014-6-1,89.2,70.4,51.3,52.2,45.9,26.5,89,49,12,29.94,29.82,4,2,8,0.00
2014-6-2,93.3,76.5,57.1,53.5,45.0,30.7,65,38,12,29.86,29.71,5,2,9,0.00
2014-6-3,84.1,67.5,52.2,52.7,48.4,35.5,90,55,19,29.85,29.75,8,5,13,0.00
2014-6-4,89.1,70.2,51.3,54.2,49.9,42.1,92,55,20,29.92,29.78,5,2,10,0.00
2014-6-5,97.4,78.3,56.7,57.0,50.8,37.5,81,43,13,29.85,29.71,5,2,8,0.00
2014-6-6,97.1,78.7,62.0,56.9,51.1,47.1,61,40,23,29.80,29.67,6,3,9,0.00
2014-6-7,95.7,76.3,59.5,58.8,53.5,47.4,75,49,23,29.79,29.67,6,3,10,0.00
2014-6-8,100.3,79.6,58.1,61.8,55.1,42.9,80,47,16,29.78,29.66,5,2,10,0.00
2014-6-9,102.3,86.5,66.2,60.4,53.6,46.5,70,37,16,29.77,29.65,8,3,10,0.00
2014-6-10,104.8,88.5,69.6,59.1,52.7,33.5,65,34,9,29.71,29.58,6,2,10,0.00
2014-6-11,102.4,80.2,58.5,61.0,55.4,47.4,86,49,16,29.72,29.58,9,4,13,0.00
2014-6-12,85.3,69.0,55.0,57.7,54.9,50.9,88,64,37,29.83,29.72,8,6,14,0.00
2014-6-13,85.2,68.2,54.1,54.3,50.8,47.2,87,57,28,29.91,29.82,7,5,14,0.00
2014-6-14,86.1,71.9,55.7,51.4,45.6,36.9,77,43,18,29.94,29.86,7,3,14,0.00
2014-6-15,87.8,73.8,58.4,50.4,45.0,35.5,62,38,17,29.89,29.72,7,3,13,0.00
2014-6-16,85.4,71.6,58.4,52.6,49.2,45.4,66,47,28,29.76,29.68,7,4,11,0.00
2014-6-19,93.2,77.5,64.2,44.5,39.3,36.9,39,27,14,29.88,29.83,6,2,7,0.00
2014-6-20,94.3,78.8,60.7,52.0,42.7,28.5,61,32,10,29.94,29.86,6,3,9,0.00
2014-6-21,96.5,79.1,61.1,53.4,45.6,33.6,67,34,13,29.93,29.81,7,3,11,0.00
2014-6-22,92.3,75.0,59.4,54.4,48.3,40.3,67,41,18,29.84,29.76,7,4,13,0.00
2014-6-23,93.5,73.3,57.0,53.1,50.5,44.2,80,49,19,29.89,29.77,7,3,13,0.00
2014-6-24,95.9,76.8,56.1,55.2,52.3,43.0,83,47,17,29.90,29.79,5,3,9,0.00
2014-6-25,94.5,77.6,63.9,57.5,52.8,48.5,70,45,23,29.91,29.83,8,4,12,0.00
2014-6-26,84.1,71.6,62.8,60.9,57.4,54.3,83,62,44,29.90,29.85,8,5,14,0.00
2014-6-27,83.6,70.6,60.2,57.6,54.8,50.0,84,61,33,29.94,29.86,7,4,12,0.00
2014-6-28,89.9,74.4,59.2,62.3,58.1,49.8,87,61,27,29.92,29.82,6,4,10,0.00
2014-6-29,95.5,76.0,59.5,58.4,53.0,34.1,87,51,12,29.91,29.80,5,2,8,0.00
2014-6-30,97.2,82.7,62.7,59.3,54.8,50.4,71,42,21,29.90,29.75,7,2,12,0.00
2014-7-1,105.3,86.7,67.8,59.5,54.7,47.7,69,37,17,29.79,29.65,6,2,10,0.00
2014-7-2,96.7,78.9,61.3,56.2,52.0,42.3,75,43,16,29.76,29.68,7,5,12,0.00
2014-7-3,96.8,75.8,59.0,60.7,56.6,52.1,82,55,24,29.81,29.72,6,4,10,0.00
2014-7-4,96.7,78.2,61.8,63.2,57.7,53.5,76,52,29,29.87,29.77,5,3,9,0.00
2014-7-5,99.1,80.2,62.6,58.1,48.1,20.3,71,39,7,29.93,29.83,7,4,12,0.00
2014-7-6,100.3,80.3,61.0,54.9,45.1,25.1,66,34,7,30.01,29.90,5,3,9,0.00
2014-7-7,101.8,83.3,60.3,50.4,46.4,35.2,57,31,11,29.99,29.82,5,2,10,0.00
2014-7-8,98.6,82.9,65.6,56.4,52.3,46.7,56,36,21,29.86,29.75,5,2,8,0.00
2014-7-9,100.0,82.2,66.9,58.4,54.3,45.0,67,42,16,29.85,29.77,8,3,9,0.00
2014-7-10,94.6,77.6,62.5,61.7,57.4,53.9,79,53,27,29.89,29.76,7,4,11,0.00
2014-7-11,90.2,74.1,61.0,60.2,56.5,48.0,83,58,26,29.90,29.77,7,4,10,0.00
2014-7-12,89.0,73.4,59.9,57.0,55.5,53.4,83,57,33,29.99,29.90,7,4,12,0.00
2014-7-13,95.5,75.5,59.0,58.5,56.4,53.4,86,56,27,30.03,29.89,6,3,11,0.00
2014-7-14,102.7,83.7,60.2,63.7,58.6,54.1,83,47,21,29.96,29.78,4,2,6,0.00
2014-7-15,106.1,87.3,71.4,63.1,56.9,43.4,66,39,13,29.85,29.76,9,3,12,0.00
2014-7-16,96.9,81.2,68.6,64.0,58.9,55.5,68,48,28,29.93,29.83,7,4,10,0.00
2014-7-17,89.8,74.1,62.6,63.0,59.6,57.8,85,63,39,29.95,29.84,8,5,11,0.00
2014-7-18,86.3,71.3,60.8,62.7,58.9,55.9,85,67,45,29.97,29.84,7,5,13,0.00
2014-7-19,89.3,73.5,60.4,61.1,57.7,55.2,87,61,34,29.97,29.84,7,4,11,0.00
2014-7-20,96.0,76.4,60.4,62.3,58.1,54.9,87,57,29,29.92,29.81,7,3,10,0.00
2014-7-21,82.7,71.0,65.3,63.1,58.9,54.8,81,67,39,29.92,29.85,7,4,10,0.10
2014-7-22,86.8,73.5,63.7,62.4,59.6,56.9,83,64,38,30.00,29.92,7,4,11,0.00
2014-7-23,89.7,73.1,61.1,63.1,59.3,57.2,88,65,37,30.08,29.95,8,4,12,0.00
2014-7-24,90.9,74.7,59.7,61.3,56.0,37.9,90,57,17,30.11,29.95,4,2,7,0.00
2014-7-25,94.9,79.3,62.1,60.4,54.3,44.4,85,47,19,29.99,29.76,7,2,11,0.00
2014-7-26,102.2,85.4,64.5,56.4,48.3,31.0,65,32,9,29.85,29.75,5,2,9,0.00
2014-7-27,104.0,87.7,70.1,55.7,47.7,33.6,50,29,10,29.89,29.80,5,2,8,0.00
2014-7-28,101.0,85.0,70.5,59.9,52.9,40.2,53,36,13,29.93,29.83,7,3,9,0.00
2014-7-29,98.1,81.1,66.7,58.7,51.1,38.1,62,38,13,29.98,29.89,7,4,12,0.00
2014-7-30,100.2,83.5,67.9,57.9,52.5,39.5,61,38,13,30.01,29.87,5,3,8,0.00
2014-7-31,101.5,85.1,69.9,61.6,56.4,49.7,64,41,18,29.95,29.84,5,2,7,0.00
2014-8-1,105.7,85.4,68.2,59.8,56.4,52.3,65,41,18,29.91,29.77,5,2,7,0.00
2014-8-2,106.9,88.6,68.8,58.8,51.8,37.7,63,34,11,29.84,29.74,7,3,11,0.00
2014-8-3,99.8,81.5,64.0,59.9,56.1,47.2,76,45,18,29.86,29.76,6,4,12,0.00
2014-8-4,86.3,72.2,60.4,61.9,57.8,55.6,86,63,40,29.92,29.83,5,3,10,0.00
2014-8-5,79.1,72.3,62.1,64.1,59.5,55.6,81,65,51,29.95,29.87,4,2,7,0.00
2014-8-6,74.8,72.0,68.7,67.7,65.0,59.6,91,79,68,30.04,29.92,5,2,7,0.00
2014-8-7,93.8,80.1,67.8,69.1,63.9,57.7,95,61,36,29.99,29.85,5,2,8,0.01
2014-8-8,96.8,80.0,66.4,64.1,59.9,55.3,74,53,33,29.91,29.77,6,3,10,0.00
2014-8-9,95.7,78.9,63.4,61.6,57.4,52.9,76,50,28,29.87,29.75,5,3,8,0.00
2014-8-10,92.4,74.1,58.2,58.9,55.3,52.0,85,55,27,29.91,29.80,6,4,11,0.00
2014-8-11,90.3,73.8,57.0,59.3,55.0,48.2,89,56,30,29.96,29.86,5,2,8,0.00
2014-8-12,98.8,80.6,62.1,58.7,53.8,44.2,80,45,20,29.91,29.79,8,3,11,0.00
2014-8-13,87.7,72.5,59.4,58.2,54.4,47.0,85,57,29,29.94,29.83,7,4,12,0.00
2014-8-14,89.2,74.4,58.1,61.1,57.9,54.4,88,59,35,29.95,29.85,7,4,12,0.00
2014-8-15,92.3,78.0,63.3,59.6,55.4,44.8,79,49,21,29.91,29.82,6,3,9,0.00
2014-8-16,96.4,79.5,65.0,58.5,53.4,40.1,67,45,20,29.96,29.86,7,2,8,0.00
2014-8-17,98.3,79.4,63.3,57.2,51.0,37.7,67,42,17,29.99,29.87,5,3,9,0.00
2014-8-18,96.7,77.1,60.5,56.5,51.2,37.1,80,46,13,29.97,29.81,5,3,9,0.00
2014-8-19,94.3,73.7,59.2,59.2,56.9,52.1,89,60,28,29.84,29.69,6,3,10,0.00
2014-8-20,86.9,70.2,58.8,60.4,58.1,55.4,89,69,38,29.82,29.70,6,4,11,0.00
2014-8-21,80.3,69.2,60.8,60.4,58.4,56.8,89,70,49,29.89,29.80,8,4,14,0.00
2014-8-22,91.0,75.5,59.6,61.2,58.8,56.5,90,59,36,29.93,29.83,4,1,7,0.00
2014-8-23,88.6,73.1,58.7,60.3,57.6,54.3,86,61,33,29.88,29.79,7,4,13,0.00
2014-8-24,95.1,74.8,58.3,59.1,55.6,44.7,88,56,26,29.91,29.76,5,2,8,0.00
2014-8-25,92.7,73.5,59.8,59.3,55.8,52.8,85,58,28,29.85,29.70,6,4,12,0.00
2014-8-26,88.1,70.6,59.7,58.8,56.4,54.7,87,63,34,29.92,29.78,7,4,11,0.00
2014-8-27,91.5,75.0,59.1,59.1,56.9,54.6,86,56,33,29.98,29.85,5,3,8,0.00
2014-8-28,97.3,80.3,64.1,58.6,54.5,49.4,72,44,22,30.03,29.90,5,2,8,0.00
2014-8-29,98.9,80.3,66.2,58.6,55.1,50.1,66,45,20,30.01,29.84,5,2,10,0.00
2014-8-30,90.7,76.1,62.0,60.5,57.7,54.4,83,55,32,29.90,29.78,4,2,7,0.00
2014-8-31,97.7,80.4,66.3,58.4,53.1,44.9,63,42,17,29.86,29.74,6,3,10,0.00
2014-9-1,95.1,79.3,64.3,57.6,54.5,49.9,69,45,23,29.88,29.74,4,2,6,0.00
2014-9-2,99.5,82.2,63.6,56.5,52.9,45.4,72,40,17,29.81,29.67,4,2,7,0.00
2014-9-3,94.3,77.2,59.7,58.4,55.1,49.7,86,51,25,29.78,29.66,7,3,9,0.00
2014-9-4,94.5,75.1,58.1,61.2,57.8,51.5,91,60,24,29.76,29.60,4,2,6,0.00
2014-9-5,95.0,77.2,60.6,59.3,52.6,35.6,87,51,13,29.75,29.62,5,2,9,0.00
2014-9-6,94.0,75.2,59.3,58.8,56.4,52.6,88,56,27,29.85,29.75,4,2,8,0.00
2014-9-7,94.3,75.5,61.0,56.9,51.8,32.3,78,48,17,29.92,29.78,4,3,7,0.00
2014-9-8,92.8,74.0,58.6,54.4,50.6,41.2,79,49,21,29.85,29.71,5,3,8,0.00
2014-9-9,85.7,68.0,55.8,55.5,51.9,43.5,86,61,23,29.91,29.77,7,4,11,0.00
2014-9-10,90.1,71.4,54.5,55.9,50.7,39.5,90,54,18,29.97,29.83,3,1,5,0.00
2014-9-11,86.3,70.1,56.7,55.8,51.0,46.1,77,54,29,29.93,29.78,3,0,4,0.00
2014-9-13,102.7,83.8,71.9,54.3,51.2,46.2,48,35,15,29.76,29.72,2,0,2,0.00
2014-9-14,101.0,83.7,66.8,58.1,53.1,49.4,62,38,18,29.79,29.67,4,1,7,0.00
2014-9-15,99.4,80.5,64.2,57.8,54.4,50.1,71,44,20,29.81,29.71,5,2,9,0.00
2014-9-16,94.0,76.6,62.8,57.6,52.0,46.5,72,46,22,29.89,29.77,8,4,11,0.00
2014-9-17,90.1,75.1,60.9,56.0,52.3,46.3,75,49,23,29.89,29.75,5,2,10,0.00
2014-9-18,90.4,75.8,64.1,63.5,54.1,43.5,81,51,25,29.78,29.67,8,3,13,0.00
2014-9-19,83.0,73.6,63.9,64.8,61.3,57.0,85,67,45,29.85,29.77,6,2,10,0.00
2014-9-20,88.2,73.4,61.7,61.8,59.4,54.3,90,64,33,29.87,29.76,5,2,9,0.00
2014-9-21,89.1,74.0,62.3,63.4,59.8,57.5,88,64,39,29.90,29.79,6,2,9,0.00
2014-9-22,80.4,69.1,60.8,60.3,58.5,57.2,88,70,49,29.95,29.85,6,3,8,0.00
2014-9-23,88.8,72.3,59.4,61.8,58.1,54.5,92,64,37,30.01,29.88,4,2,9,0.00
2014-9-24,89.1,74.2,61.5,61.9,57.2,50.1,91,59,33,29.97,29.84,6,3,9,0.00
2014-9-25,85.4,72.6,63.7,63.7,61.7,56.8,91,71,38,29.94,29.80,7,3,10,0.00
2014-9-26,73.0,63.7,56.5,61.7,56.6,54.1,95,79,55,30.01,29.86,8,2,10,0.55
2014-9-27,76.5,65.0,53.4,56.7,54.2,48.2,94,70,38,29.99,29.85,7,1,9,0.00
2014-9-28,78.3,68.0,56.8,57.0,54.9,51.2,91,65,40,29.91,29.76,4,1,7,0.00
2014-9-29,74.7,64.0,56.4,59.0,56.3,53.9,92,77,54,29.94,29.79,4,1,8,0.00
2014-9-30,82.4,67.9,54.7,59.4,56.5,52.3,93,70,41,30.00,29.89,3,1,6,0.00
2014-10-1,81.4,69.1,58.2,59.4,55.3,46.5,89,63,44,29.94,29.80,7,2,11,0.00
2014-10-2,84.7,69.0,55.6,48.8,44.9,41.6,76,46,23,29.94,29.83,9,4,13,0.00
2014-10-3,88.9,71.4,53.4,49.9,46.5,42.5,75,45,21,30.05,29.94,3,0,7,0.00
2014-10-4,93.0,75.3,56.4,51.5,47.1,38.8,76,41,16,30.09,29.98,4,1,6,0.00
2014-10-5,94.5,76.3,56.9,50.9,47.8,42.5,72,40,17,30.04,29.88,5,1,6,0.00
2014-10-6,94.7,76.6,58.8,53.2,50.5,46.2,71,44,20,29.95,29.83,3,1,8,0.00
2014-10-7,95.0,77.3,59.5,53.4,50.3,46.9,70,42,20,29.92,29.79,4,1,5,0.00
2014-10-8,93.3,75.7,59.6,54.2,51.5,49.2,71,46,24,29.89,29.76,4,1,6,0.00
2014-10-9,94.1,75.5,57.5,54.2,47.9,40.7,84,43,16,29.89,29.77,5,1,7,0.00
2014-10-10,88.1,72.2,59.0,54.3,49.8,43.6,77,48,22,29.93,29.83,5,2,8,0.00
2014-10-11,87.8,70.9,56.0,56.0,52.9,49.4,86,57,28,30.02,29.90,4,1,7,0.00
2014-10-12,87.6,70.4,57.2,56.8,53.5,51.4,84,58,30,30.03,29.91,4,1,6,0.00
2014-10-13,88.3,71.7,58.3,51.8,41.0,32.5,73,37,15,29.98,29.86,12,5,17,0.00
2014-10-14,91.2,73.4,55.9,50.9,44.7,38.5,67,39,21,29.98,29.84,4,2,7,0.00
2014-10-15,74.2,65.3,56.8,56.8,54.9,50.7,86,70,52,29.90,29.79,10,4,13,0.00
2014-10-16,71.1,64.3,57.9,59.5,55.9,53.1,96,76,54,30.03,29.85,6,2,8,0.11
2014-10-17,74.4,64.2,55.3,56.2,51.9,46.8,91,66,48,30.03,29.90,4,1,7,0.00
2014-10-18,74.5,63.4,53.7,52.5,50.2,47.1,81,64,42,29.98,29.91,5,1,10,0.00
2014-10-19,79.3,65.7,53.6,54.2,52.3,48.7,84,64,40,29.98,29.85,5,1,9,0.00
2014-10-20,82.0,67.8,52.7,59.2,55.0,49.1,90,66,40,29.92,29.80,4,1,6,0.00
2014-10-21,71.5,63.1,53.1,59.5,54.3,46.6,93,74,49,30.06,29.88,8,3,12,0.00
2014-10-22,70.8,58.5,48.1,53.1,47.4,41.7,95,69,36,30.11,29.98,6,2,10,0.00
2014-10-23,77.2,63.0,48.3,49.9,46.8,44.2,89,59,32,30.07,29.98,2,0,4,0.00
2014-10-24,76.5,63.7,53.5,55.8,52.6,46.6,96,69,47,30.06,29.96,6,1,9,0.00
2014-10-25,78.2,63.3,48.0,55.7,53.2,47.0,98,73,44,29.98,29.84,4,2,8,0.00
2014-10-26,69.5,61.8,54.8,57.7,55.3,52.8,94,80,59,30.14,29.90,8,3,13,0.09
2014-10-27,69.1,57.6,46.7,56.2,45.6,38.2,97,69,33,30.15,30.01,9,2,14,0.00
2014-10-28,70.2,55.5,42.2,47.5,43.9,40.0,92,68,36,30.06,29.98,3,1,5,0.00
2014-10-29,75.9,60.3,45.1,49.2,45.5,41.9,92,62,30,30.12,30.04,4,1,5,0.00
2014-10-30,79.6,64.0,49.4,52.6,49.7,45.4,87,62,35,30.12,29.96,3,1,5,0.00
2014-10-31,79.7,66.6,54.8,56.1,51.5,47.8,89,62,35,29.97,29.84,4,2,7,0.00
2014-11-1,66.0,58.6,53.5,58.5,55.0,52.4,97,88,70,29.89,29.68,6,2,7,0.21
2014-11-2,65.7,55.9,46.8,52.9,49.0,43.6,97,79,47,30.05,29.71,7,3,13,0.14
2014-11-3,66.6,51.6,42.6,47.2,42.8,38.4,95,76,36,30.16,30.05,7,2,13,0.00
2014-11-4,67.6,53.5,40.7,45.8,43.0,38.3,93,70,41,30.27,30.16,4,1,6,0.00
2014-11-5,68.8,56.1,44.0,47.8,45.5,41.0,90,70,45,30.35,30.22,5,1,8,0.00
2014-11-6,74.3,60.1,47.4,50.9,48.9,44.7,92,69,42,30.22,30.09,3,1,5,0.00
2014-11-7,77.8,61.8,51.0,52.7,50.4,47.7,90,69,39,30.23,30.14,3,1,5,0.00
2014-11-8,75.5,61.0,47.6,54.1,50.7,45.2,93,71,46,30.22,30.07,5,1,9,0.00
2014-11-9,76.5,61.9,51.5,54.3,51.4,47.2,93,71,45,30.14,30.00,3,1,5,0.00
2014-11-10,77.8,63.1,51.3,55.1,51.9,48.2,92,69,43,30.01,29.81,3,1,5,0.00
2014-11-11,74.8,60.2,49.3,54.2,50.5,46.1,91,73,45,29.84,29.76,3,1,6,0.00
2014-11-12,63.7,58.4,51.6,53.2,50.4,47.5,96,76,64,29.97,29.82,6,2,9,0.00
2014-11-13,64.4,57.7,50.6,52.1,48.3,46.3,90,72,55,30.03,29.96,4,1,5,0.04
2014-11-14,60.5,57.0,53.4,58.5,55.8,51.7,98,96,91,30.05,29.95,5,2,9,0.38
2014-11-15,64.8,56.2,50.1,56.8,53.2,48.3,99,90,68,30.09,30.03,4,1,6,0.01
2014-11-16,65.3,56.4,46.6,53.1,50.2,45.5,98,81,62,30.15,30.08,4,1,5,0.00
2014-11-17,59.6,52.2,43.3,50.0,43.7,33.4,96,75,48,30.28,30.22,3,0,5,0.00
2014-11-18,64.4,49.0,38.1,42.6,39.3,36.0,96,73,36,30.26,30.13,3,1,5,0.00
2014-11-19,60.8,49.4,38.8,44.1,40.8,36.2,94,74,47,30.20,30.05,3,1,4,0.00
2014-11-20,59.2,51.7,46.2,52.8,48.8,42.8,98,90,71,30.15,30.02,5,1,8,0.07
2014-11-21,54.1,52.0,49.3,53.1,51.4,48.8,99,98,95,30.13,29.97,9,1,12,0.18
2014-11-22,57.0,50.4,49.9,52.7,48.4,49.3,100,88,83,30.14,30.04,5,2,10,0.01
2014-11-23,57.6,48.9,47.0,55.5,47.8,46.7,99,88,90,30.26,30.04,14,4,16,0.15
2014-11-24,57.5,49.0,42.5,47.4,44.5,41.4,99,86,59,30.34,30.25,6,2,9,0.02
2014-11-25,63.3,49.1,37.1,47.4,42.3,36.3,98,80,46,30.46,30.33,4,1,6,0.00
2014-11-26,64.0,51.0,41.3,48.3,44.3,39.3,94,80,52,30.50,30.33,4,1,6,0.00
2014-11-27,67.3,53.1,41.5,50.4,46.6,40.4,97,80,53,30.35,30.20,2,0,4,0.01
2014-11-28,70.6,54.3,44.8,52.0,47.8,43.7,97,81,50,30.21,30.04,2,0,3,0.00
2014-11-29,66.0,53.8,40.6,52.1,47.3,39.3,96,80,50,30.04,29.83,5,1,7,0.33
2014-11-30,58.7,54.8,52.7,54.4,51.4,49.4,96,89,76,29.89,29.76,5,2,8,0.66
2014-12-1,56.0,53.8,52.1,53.9,51.9,50.8,98,94,86,30.07,29.76,6,1,7,0.20
2014-12-2,63.4,55.3,50.3,56.9,53.1,49.8,99,93,79,30.17,29.94,4,1,7,0.01
2014-12-3,58.2,54.3,50.9,57.0,53.6,50.4,99,98,95,29.94,29.73,7,2,13,0.38
2014-12-4,63.6,59.4,57.6,59.5,57.8,56.5,98,95,83,29.90,29.72,13,5,20,2.52
2014-12-5,68.4,59.8,55.5,60.6,56.2,54.0,98,89,66,30.03,29.89,5,1,7,0.06
2014-12-6,66.0,60.3,55.1,58.0,56.1,52.5,96,86,73,30.11,29.98,6,3,11,0.15
2014-12-7,67.4,59.3,50.7,59.7,56.2,50.2,98,90,73,30.24,30.11,4,1,5,0.05
2014-12-8,63.5,54.0,48.0,55.6,51.7,47.5,99,92,74,30.23,30.14,5,0,7,0.01
2014-12-9,65.4,55.1,49.2,53.5,50.4,47.9,99,86,55,30.20,30.13,3,0,4,0.01
2014-12-10,60.2,53.3,48.5,53.3,50.3,47.4,98,90,73,30.22,30.07,6,1,9,0.00
2014-12-11,50.3,49.9,49.7,49.8,49.4,49.2,98,98,98,30.08,30.06,3,2,6,0.00
2014-12-12,62.0,54.7,48.5,56.3,51.3,47.8,98,89,64,29.69,29.52,13,5,22,2.61
2014-12-13,55.2,49.7,47.1,48.7,47.7,46.1,98,93,73,30.12,29.66,5,1,8,0.72
2014-12-14,55.2,48.9,43.3,50.3,46.5,42.3,98,92,74,30.23,30.12,4,1,6,0.00
2014-12-15,53.4,47.8,42.8,47.0,45.2,42.3,98,91,75,30.17,30.02,5,1,7,0.00
2014-12-16,53.6,49.8,47.8,47.9,46.9,45.5,97,90,74,30.05,29.88,8,4,15,0.82
2014-12-17,60.9,53.4,48.4,51.5,48.7,46.9,97,85,64,29.99,29.83,10,4,13,0.71
2014-12-18,55.2,51.2,47.9,50.6,48.6,46.9,97,91,82,30.11,29.95,7,3,11,0.14
2014-12-19,60.3,52.9,48.4,49.8,48.0,46.6,95,84,65,30.21,30.10,5,1,8,0.00
2014-12-20,54.5,52.0,50.3,51.2,49.2,46.7,97,90,76,30.23,30.10,7,3,11,0.79
2014-12-21,57.0,54.2,51.7,53.7,52.2,50.1,96,93,88,30.26,30.15,5,2,8,0.02
2014-12-22,63.7,57.2,51.0,58.7,54.9,50.5,99,92,83,30.30,30.23,4,1,5,0.00
2014-12-23,58.9,53.9,48.8,56.1,53.0,48.3,100,97,90,30.29,30.17,6,2,9,0.01
2014-12-24,64.2,54.5,48.8,55.6,52.0,48.3,99,92,73,30.23,30.11,3,1,6,0.01
2014-12-25,57.2,50.5,44.7,55.0,46.9,36.4,99,88,68,30.13,29.85,8,4,11,0.03
2014-12-26,55.9,45.9,37.7,39.1,35.4,30.6,89,68,39,30.13,30.05,11,4,17,0.00
2014-12-27,55.8,45.9,37.0,37.9,34.4,31.1,87,66,41,30.29,30.11,9,4,15,0.00
2014-12-28,55.4,43.9,33.9,40.3,36.5,31.2,93,77,50,30.41,30.27,3,0,4,0.00
2014-12-29,54.7,43.8,33.9,41.9,37.8,32.6,97,81,56,30.37,30.23,2,0,4,0.00
2014-12-30,45.6,40.1,35.5,40.8,37.3,33.7,97,90,81,30.25,30.11,3,0,4,0.00
2014-12-31,54.6,42.9,32.7,34.7,23.4,12.1,98,53,20,30.30,30.10,16,8,29,0.01
2015-1-1,53.3,41.4,33.3,31.0,24.1,19.7,86,52,30,30.28,30.06,11,5,18,0.00
2015-1-2,51.4,38.9,29.3,33.7,30.8,26.5,91,74,46,30.21,30.11,4,1,6,0.00